Time;durP1;ratioP1;P1;durP2;ratioP2;P2;SDS_P1;SDS_P2;PMS_P1;PMS_P2;Temp;Humidity;BMP_temperature;BMP_pressure;BME280_temperature;BME280_humidity;BME280_pressure;Samples;Min_cycle;Max_cycle;Signal;HPM_P1;HPM_P2
2022/06/21 00:00:06;;;;;;;;;;;;;;;14.42;100.00;95749.78;1019101;29;20391;-71
2022/06/21 00:00:36;;;;;;;;;;;;;;;14.41;100.00;95748.19;1019304;29;19918;-71
2022/06/21 00:01:08;;;;;;;;;;;;;;;14.39;100.00;95745.84;1021954;29;19914;-72
2022/06/21 00:01:38;;;;;;;;;;;;;;;14.35;100.00;95744.84;1024055;28;19961;-72
2022/06/21 00:02:10;;;;;;;;;;;;;;;14.33;100.00;95746.22;1034646;28;19909;-71
2022/06/21 00:02:40;;;;;;;;;;;;;;;14.32;100.00;95753.34;1033257;28;19909;-72
2022/06/21 00:03:12;;;;;;;;;;;;;;;14.32;100.00;95753.34;1031156;28;19921;-71
2022/06/21 00:03:43;;;;;;;;;;;;;;;14.32;100.00;95752.56;1031017;28;19980;-72
2022/06/21 00:04:13;;;;;;;;;;;;;;;14.26;100.00;95746.56;1031131;28;20107;-71
2022/06/21 00:04:43;;;;;;;;;;;;;;;14.26;100.00;95754.47;1032360;28;19925;-70
2022/06/21 00:05:14;;;;;;;;;;;;;;;14.22;100.00;95752.69;1031007;28;19925;-70
2022/06/21 00:05:45;;;;;;;;;;;;;;;14.21;100.00;95753.75;1027197;28;19914;-72
2022/06/21 00:06:17;;;;;;;;;;;;;;;14.21;100.00;95751.91;1026989;28;19965;-70
2022/06/21 00:06:48;;;;;;;;;;;;;;;14.18;100.00;95751.69;1027666;28;19965;-70
2022/06/21 00:07:19;;;;;;;;;;;;;;;14.15;100.00;95758.31;1027137;28;20431;-72
2022/06/21 00:07:50;;;;;;;;;;;;;;;14.12;100.00;95749.13;1027728;28;19945;-70
2022/06/21 00:08:24;;;;;;;;;;;;;;;14.09;100.00;95756.81;1031030;28;19914;-71
2022/06/21 00:08:54;;;;;;;;;;;;;;;14.08;100.00;95752.59;1031853;28;19917;-73
2022/06/21 00:09:24;;;;;;;;;;;;;;;14.08;100.00;95757.88;1035173;28;19913;-71
2022/06/21 00:09:55;;;;;;;;;;;;;;;14.08;100.00;95763.16;1035472;28;19914;-70
2022/06/21 00:10:25;;;;;;;;;;;;;;;14.09;100.00;95759.47;1035208;28;20369;-71
2022/06/21 00:10:56;;;;;;;;;;;;;;;14.09;100.00;95759.47;1035194;28;20200;-71
2022/06/21 00:11:27;;;;;;;;;;;;;;;14.10;100.00;95759.16;1031009;28;19914;-71
2022/06/21 00:11:57;;;;;;;;;;;;;;;14.10;100.00;95755.75;1030537;28;19913;-69
2022/06/21 00:12:27;;;;;;;;;;;;;;;14.11;100.00;95757.31;1030985;28;19964;-70
2022/06/21 00:12:58;;;;;;;;;;;;;;;14.12;100.00;95758.91;1031113;28;19918;-70
2022/06/21 00:13:29;;;;;;;;;;;;;;;14.11;100.00;95757.31;1035180;28;19929;-73
2022/06/21 00:14:00;;;;;;;;;;;;;;;14.10;100.00;95753.13;1035119;28;19913;-72
2022/06/21 00:14:30;;;;;;;;;;;;;;;14.09;100.00;95754.97;1031077;28;19898;-72
2022/06/21 00:15:00;;;;;;;;;;;;;;;14.09;100.00;95754.19;1031040;28;19966;-71
2022/06/21 00:15:31;;;;;;;;;;;;;;;14.09;100.00;95754.97;1031044;28;19965;-71
2022/06/21 00:16:05;;;;;;;;;;;;;;;14.12;100.00;95756.25;1030936;28;19921;-71
2022/06/21 00:16:35;;;;;;;;;;;;;;;14.10;100.00;95753.88;1027859;28;19911;-71
2022/06/21 00:17:08;;;;;;;;;;;;;;;14.08;100.00;95752.59;1030987;28;19957;-71
2022/06/21 00:17:39;;;;;;;;;;;;;;;14.05;100.00;95743.41;1026932;28;19957;-72
2022/06/21 00:18:11;;;;;;;;;;;;;;;14.03;100.00;95750.81;1022895;28;20303;-72
2022/06/21 00:18:44;;;;;;;;;;;;;;;14.03;100.00;95753.47;1023112;29;19925;-71
2022/06/21 00:19:16;;;;;;;;;;;;;;;14.01;100.00;95746.88;1023773;28;19930;-73
2022/06/21 00:19:46;;;;;;;;;;;;;;;14.00;100.00;95745.34;1023829;28;20407;-72
2022/06/21 00:20:20;;;;;;;;;;;;;;;13.98;100.00;95747.47;1027328;28;19919;-72
2022/06/21 00:20:51;;;;;;;;;;;;;;;13.96;100.00;95745.13;1031971;28;19920;-71
2022/06/21 00:21:23;;;;;;;;;;;;;;;13.97;100.00;95743.25;1035175;28;19913;-69
2022/06/21 00:21:53;;;;;;;;;;;;;;;13.93;100.00;95743.03;1035834;28;19918;-71
2022/06/21 00:22:23;;;;;;;;;;;;;;;13.97;100.00;95743.25;1031595;28;20391;-71
2022/06/21 00:22:54;;;;;;;;;;;;;;;13.91;100.00;95748.59;1031343;28;19918;-71
2022/06/21 00:23:25;;;;;;;;;;;;;;;13.89;100.00;95748.09;1035103;28;20270;-72
2022/06/21 00:23:56;;;;;;;;;;;;;;;13.90;100.00;95744.38;1031083;28;19988;-70
2022/06/21 00:24:26;;;;;;;;;;;;;;;13.84;100.00;95748.16;1035031;28;19917;-71
2022/06/21 00:24:56;;;;;;;;;;;;;;;13.86;100.00;95751.31;1035251;28;19921;-72
2022/06/21 00:25:27;;;;;;;;;;;;;;;13.85;100.00;95746.31;1035004;28;19928;-72
2022/06/21 00:25:57;;;;;;;;;;;;;;;13.81;100.00;95748.72;1039307;28;19943;-71
2022/06/21 00:26:28;;;;;;;;;;;;;;;13.77;100.00;95744.28;1039239;28;19925;-72
2022/06/21 00:26:58;;;;;;;;;;;;;;;13.76;100.00;95751.41;1039597;28;19991;-71
2022/06/21 00:27:28;;;;;;;;;;;;;;;13.76;100.00;95756.69;1041806;28;19921;-70
2022/06/21 00:27:59;;;;;;;;;;;;;;;13.67;100.00;95756.53;1039161;28;19921;-73
2022/06/21 00:28:29;;;;;;;;;;;;;;;13.75;100.00;95757.78;1039006;28;19922;-70
2022/06/21 00:29:02;;;;;;;;;;;;;;;13.71;100.00;95753.31;1034976;28;20167;-72
2022/06/21 00:29:32;;;;;;;;;;;;;;;13.67;100.00;95759.16;1031129;28;19918;-70
2022/06/21 00:30:03;;;;;;;;;;;;;;;13.67;100.00;95755.75;1031022;28;20302;-72
2022/06/21 00:30:33;;;;;;;;;;;;;;;13.63;100.00;95752.09;1031797;28;20487;-71
2022/06/21 00:31:05;;;;;;;;;;;;;;;13.64;100.00;95748.38;1035557;28;20311;-71
2022/06/21 00:31:35;;;;;;;;;;;;;;;13.65;100.00;95758.69;1035114;28;20342;-71
2022/06/21 00:32:08;;;;;;;;;;;;;;;13.64;100.00;95756.31;1034532;28;19917;-70
2022/06/21 00:32:38;;;;;;;;;;;;;;;13.62;100.00;95756.59;1027934;28;20513;-72
2022/06/21 00:33:10;;;;;;;;;;;;;;;13.61;100.00;95759.50;1031115;28;19991;-72
2022/06/21 00:33:40;;;;;;;;;;;;;;;13.57;100.00;95758.50;1031073;28;20374;-72
2022/06/21 00:34:17;;;;;;;;;;;;;;;13.54;100.00;95753.78;1032761;28;19922;-71
2022/06/21 00:34:47;;;;;;;;;;;;;;;13.50;100.00;95755.41;1034987;28;19973;-72
2022/06/21 00:35:19;;;;;;;;;;;;;;;13.49;100.00;95752.00;1035948;28;20351;-72
2022/06/21 00:35:50;;;;;;;;;;;;;;;13.47;100.00;95743.56;1030083;28;19917;-72
2022/06/21 00:36:24;;;;;;;;;;;;;;;13.48;100.00;95754.88;1022383;28;19925;-71
2022/06/21 00:36:54;;;;;;;;;;;;;;;13.49;100.00;95752.00;1022782;29;20331;-71
2022/06/21 00:37:25;;;;;;;;;;;;;;;13.47;100.00;95746.19;1020133;28;19923;-71
2022/06/21 00:37:55;;;;;;;;;;;;;;;13.44;100.00;95750.19;1028069;28;19914;-72
2022/06/21 00:38:30;;;;;;;;;;;;;;;13.44;100.00;95747.53;1034862;28;19914;-71
2022/06/21 00:39:00;;;;;;;;;;;;;;;13.42;100.00;95752.31;1039053;28;19960;-72
2022/06/21 00:39:31;;;;;;;;;;;;;;;13.38;100.00;95755.78;1031535;28;20415;-71
2022/06/21 00:40:01;;;;;;;;;;;;;;;13.37;100.00;95755.00;1031680;28;20016;-69
2022/06/21 00:40:32;;;;;;;;;;;;;;;13.37;100.00;95752.38;1035907;28;20534;-70
2022/06/21 00:41:05;;;;;;;;;;;;;;;13.35;100.00;95751.88;1035483;28;19918;-71
2022/06/21 00:41:38;;;;;;;;;;;;;;;13.34;100.00;95754.78;1039549;28;19921;-71
2022/06/21 00:42:38;;;;;;;;;;;;;;;13.33;100.00;95754.00;1035301;28;19948;-71
2022/06/21 00:43:12;;;;;;;;;;;;;;;13.29;100.00;95760.91;1015637;29;19919;-73
2022/06/21 00:43:44;;;;;;;;;;;;;;;13.28;100.00;95761.16;1031883;28;20340;-70
2022/06/21 00:44:15;;;;;;;;;;;;;;;13.24;100.00;95752.22;1031521;28;19973;-72
2022/06/21 00:44:58;;;;;;;;;;;;;;;13.23;100.00;95756.69;1027804;28;19977;-71
2022/06/21 00:45:29;;;;;;;;;;;;;;;13.20;100.00;95759.88;1027649;28;20392;-71
2022/06/21 00:45:59;;;;;;;;;;;;;;;13.21;100.00;95762.25;1027532;28;19973;-70
2022/06/21 00:46:31;;;;;;;;;;;;;;;13.17;100.00;95755.97;1029528;28;19922;-71
2022/06/21 00:47:02;;;;;;;;;;;;;;;13.20;100.00;95757.25;1032140;28;19914;-71
2022/06/21 00:47:43;;;;;;;;;;;;;;;13.20;100.00;95762.53;1040190;28;19921;-72
2022/06/21 00:48:22;;;;;;;;;;;;;;;13.17;100.00;95760.44;1039846;28;19917;-70
2022/06/21 00:48:53;;;;;;;;;;;;;;;13.19;100.00;95766.22;1039952;28;19917;-70
2022/06/21 00:49:25;;;;;;;;;;;;;;;13.17;100.00;95760.44;1039661;28;19917;-71
2022/06/21 00:49:55;;;;;;;;;;;;;;;13.16;100.00;95761.50;1039751;28;19913;-71
2022/06/21 00:50:25;;;;;;;;;;;;;;;13.15;100.00;95767.84;1039882;28;19916;-71
2022/06/21 00:51:14;;;;;;;;;;;;;;;13.12;100.00;95768.41;1039927;28;20357;-72
2022/06/21 00:51:45;;;;;;;;;;;;;;;13.09;100.00;95761.06;1038295;28;19996;-71
2022/06/21 00:52:17;;;;;;;;;;;;;;;13.08;100.00;95770.03;1039255;28;19901;-70
2022/06/21 00:52:51;;;;;;;;;;;;;;;13.06;100.00;95765.03;1031617;28;19910;-70
2022/06/21 00:53:41;;;;;;;;;;;;;;;13.07;100.00;95768.44;1028462;28;19906;-71
2022/06/21 00:54:29;;;;;;;;;;;;;;;13.06;100.00;95766.88;1027697;28;19953;-70
2022/06/21 00:55:01;;;;;;;;;;;;;;;13.07;100.00;95760.53;1036759;28;19996;-71
2022/06/21 00:55:46;;;;;;;;;;;;;;;13.06;100.00;95764.25;1031422;28;19974;-69
2022/06/21 00:56:20;;;;;;;;;;;;;;;13.07;100.00;95771.06;1035590;28;19905;-71
2022/06/21 00:57:13;;;;;;;;;;;;;;;13.04;100.00;95767.13;1031806;28;19914;-72
2022/06/21 00:57:46;;;;;;;;;;;;;;;13.08;100.00;95765.53;1031624;28;19961;-72
2022/06/21 00:58:18;;;;;;;;;;;;;;;13.09;100.00;95763.69;1031549;28;19910;-71
2022/06/21 00:58:48;;;;;;;;;;;;;;;13.10;100.00;95765.25;1031283;28;19945;-71
2022/06/21 00:59:20;;;;;;;;;;;;;;;13.08;100.00;95757.66;1027638;28;20036;-70
2022/06/21 00:59:50;;;;;;;;;;;;;;;13.05;100.00;95760.03;1025076;28;19907;-70
2022/06/21 01:00:25;;;;;;;;;;;;;;;13.04;100.00;95755.81;1027558;28;20220;-70
2022/06/21 01:00:56;;;;;;;;;;;;;;;13.02;100.00;95760.59;1028543;28;19916;-71
2022/06/21 01:01:29;;;;;;;;;;;;;;;13.01;100.00;95765.09;1034298;28;20435;-71
2022/06/21 01:02:02;;;;;;;;;;;;;;;12.97;100.00;95756.94;1039305;28;19963;-71
2022/06/21 01:02:33;;;;;;;;;;;;;;;12.95;100.00;95768.81;1031507;28;19949;-72
2022/06/21 01:03:07;;;;;;;;;;;;;;;12.94;100.00;95760.13;1027637;28;19906;-70
2022/06/21 01:03:42;;;;;;;;;;;;;;;12.93;100.00;95766.44;1019678;29;19910;-71
2022/06/21 01:04:23;;;;;;;;;;;;;;;12.95;100.00;95759.06;1020940;29;20409;-71
2022/06/21 01:04:54;;;;;;;;;;;;;;;12.97;100.00;95756.94;1022174;29;19911;-71
2022/06/21 01:05:25;;;;;;;;;;;;;;;12.96;100.00;95759.84;1025929;28;20361;-71
2022/06/21 01:05:55;;;;;;;;;;;;;;;12.99;100.00;95759.31;1031575;28;19996;-71
2022/06/21 01:06:27;;;;;;;;;;;;;;;13.02;100.00;95757.97;1027665;28;19961;-70
2022/06/21 01:06:57;;;;;;;;;;;;;;;13.01;100.00;95759.81;1027902;28;19996;-74
2022/06/21 01:07:28;;;;;;;;;;;;;;;13.02;100.00;95755.34;1027632;28;19979;-70
2022/06/21 01:07:58;;;;;;;;;;;;;;;13.06;100.00;95758.97;1027788;28;19910;-72
2022/06/21 01:08:29;;;;;;;;;;;;;;;13.05;100.00;95755.56;1035558;28;20018;-70
2022/06/21 01:09:05;;;;;;;;;;;;;;;13.07;100.00;95753.41;1036019;28;20467;-71
2022/06/21 01:09:36;;;;;;;;;;;;;;;13.10;100.00;95763.41;1039827;28;19921;-71
2022/06/21 01:10:10;;;;;;;;;;;;;;;13.08;100.00;95756.88;1031197;28;19913;-72
2022/06/21 01:10:41;;;;;;;;;;;;;;;13.07;100.00;95755.28;1028927;28;20036;-72
2022/06/21 01:11:12;;;;;;;;;;;;;;;13.04;100.00;95766.34;1027684;28;19973;-70
2022/06/21 01:11:45;;;;;;;;;;;;;;;13.00;100.00;95762.72;1024620;28;19911;-73
2022/06/21 01:12:17;;;;;;;;;;;;;;;12.98;100.00;95771.69;1027343;28;19906;-71
2022/06/21 01:13:00;;;;;;;;;;;;;;;13.00;100.00;95766.13;1023631;29;19911;-71
2022/06/21 01:13:31;;;;;;;;;;;;;;;12.96;100.00;95765.13;1023926;28;19907;-73
2022/06/21 01:14:04;;;;;;;;;;;;;;;12.94;100.00;95765.41;1025442;28;20033;-71
2022/06/21 01:14:35;;;;;;;;;;;;;;;12.92;100.00;95764.88;1031778;28;20034;-72
2022/06/21 01:15:06;;;;;;;;;;;;;;;12.89;100.00;95773.34;1035511;28;19967;-71
2022/06/21 01:15:37;;;;;;;;;;;;;;;12.87;100.00;95772.81;1032884;28;19953;-72
2022/06/21 01:16:08;;;;;;;;;;;;;;;12.86;100.00;95768.63;1035501;28;20327;-70
2022/06/21 01:16:38;;;;;;;;;;;;;;;12.87;100.00;95764.91;1030389;28;19906;-73
2022/06/21 01:17:08;;;;;;;;;;;;;;;12.83;100.00;95766.53;1023876;28;19914;-73
2022/06/21 01:17:39;;;;;;;;;;;;;;;12.81;100.00;95763.41;1023736;28;19915;-71
2022/06/21 01:18:09;;;;;;;;;;;;;;;12.81;100.00;95767.88;1027670;28;19914;-71
2022/06/21 01:18:40;;;;;;;;;;;;;;;12.77;100.00;95772.13;1031176;28;19937;-70
2022/06/21 01:19:33;;;;;;;;;;;;;;;12.73;100.00;95761.34;1031736;28;20324;-72
2022/06/21 01:20:07;;;;;;;;;;;;;;;12.74;100.00;95762.91;1034516;28;20015;-71
2022/06/21 01:20:39;;;;;;;;;;;;;;;12.73;100.00;95766.63;1029272;28;20463;-71
2022/06/21 01:21:09;;;;;;;;;;;;;;;12.74;100.00;95770.81;1023244;29;20456;-72
2022/06/21 01:21:40;;;;;;;;;;;;;;;12.74;100.00;95765.53;1020545;29;19944;-70
2022/06/21 01:22:31;;;;;;;;;;;;;;;12.73;100.00;95764.75;1020021;28;19960;-72
2022/06/21 01:23:02;;;;;;;;;;;;;;;12.71;100.00;95766.91;1033262;28;19913;-71
2022/06/21 01:23:35;;;;;;;;;;;;;;;12.69;100.00;95768.22;1038716;28;19960;-71
2022/06/21 01:24:16;;;;;;;;;;;;;;;12.67;100.00;95770.34;1034833;28;21533;-71
2022/06/21 01:25:09;;;;;;;;;;;;;;;12.67;100.00;95771.13;1031494;28;20397;-71
2022/06/21 01:25:46;;;;;;;;;;;;;;;12.64;100.00;95768.25;1021014;28;19918;-72
2022/06/21 01:26:35;;;;;;;;;;;;;;;12.64;100.00;95769.06;1031505;28;19902;-70
2022/06/21 01:27:05;;;;;;;;;;;;;;;12.64;100.00;95763.00;1031835;28;20015;-71
2022/06/21 01:27:36;;;;;;;;;;;;;;;12.63;100.00;95762.22;1035707;28;19909;-71
2022/06/21 01:28:06;;;;;;;;;;;;;;;12.64;100.00;95760.34;1035710;28;19949;-71
2022/06/21 01:28:37;;;;;;;;;;;;;;;12.62;100.00;95770.38;1031659;28;20307;-73
2022/06/21 01:29:09;;;;;;;;;;;;;;;12.62;100.00;95763.28;1031447;28;19957;-72
2022/06/21 01:29:41;;;;;;;;;;;;;;;12.61;100.00;95763.53;1031858;28;19952;-71
2022/06/21 01:30:11;;;;;;;;;;;;;;;12.62;100.00;95765.91;1031419;28;20053;-72
2022/06/21 01:30:43;;;;;;;;;;;;;;;12.59;100.00;95765.66;1033513;28;19910;-71
2022/06/21 01:31:13;;;;;;;;;;;;;;;12.59;100.00;95765.66;1027841;28;19957;-72
2022/06/21 01:31:43;;;;;;;;;;;;;;;12.55;100.00;95769.91;1031848;28;19918;-72
2022/06/21 01:32:14;;;;;;;;;;;;;;;12.53;100.00;95761.50;1030941;28;20339;-72
2022/06/21 01:32:44;;;;;;;;;;;;;;;12.52;100.00;95760.72;1027429;28;19918;-70
2022/06/21 01:33:14;;;;;;;;;;;;;;;12.52;100.00;95770.47;1027256;28;19910;-71
2022/06/21 01:33:45;;;;;;;;;;;;;;;12.50;100.00;95762.81;1019710;29;19915;-71
2022/06/21 01:34:16;;;;;;;;;;;;;;;12.51;100.00;95761.78;1019311;29;19953;-71
2022/06/21 01:34:47;;;;;;;;;;;;;;;12.48;100.00;95765.75;1019998;28;20416;-71
2022/06/21 01:35:29;;;;;;;;;;;;;;;12.48;100.00;95764.97;1027716;28;19914;-72
2022/06/21 01:36:00;;;;;;;;;;;;;;;12.48;100.00;95763.09;1033461;28;20330;-70
2022/06/21 01:36:34;;;;;;;;;;;;;;;12.49;100.00;95756.00;1035911;28;19991;-69
2022/06/21 01:37:08;;;;;;;;;;;;;;;12.49;100.00;95762.03;1032104;28;19910;-72
2022/06/21 01:37:38;;;;;;;;;;;;;;;12.48;100.00;95755.22;1028920;28;19914;-70
2022/06/21 01:38:10;;;;;;;;;;;;;;;12.46;100.00;95757.31;1031976;28;20387;-71
2022/06/21 01:38:44;;;;;;;;;;;;;;;12.46;100.00;95754.69;1032676;28;19945;-71
2022/06/21 01:39:34;;;;;;;;;;;;;;;12.47;100.00;95758.91;1035525;28;19957;-71
2022/06/21 01:40:12;;;;;;;;;;;;;;;12.47;100.00;95755.47;1034956;28;19917;-70
2022/06/21 01:40:43;;;;;;;;;;;;;;;12.48;100.00;95760.47;1035552;28;19913;-70
2022/06/21 01:41:15;;;;;;;;;;;;;;;12.47;100.00;95758.91;1031373;28;19914;-71
2022/06/21 01:41:50;;;;;;;;;;;;;;;12.49;100.00;95756.78;1028773;28;20467;-73
2022/06/21 01:42:30;;;;;;;;;;;;;;;12.49;100.00;95754.16;1031916;28;20409;-72
2022/06/21 01:43:01;;;;;;;;;;;;;;;12.49;100.00;95753.38;1025640;28;19915;-71
2022/06/21 01:43:32;;;;;;;;;;;;;;;12.48;100.00;95755.22;1025478;28;20403;-72
2022/06/21 01:44:03;;;;;;;;;;;;;;;12.46;100.00;95754.69;1023380;29;19920;-72
2022/06/21 01:44:35;;;;;;;;;;;;;;;12.47;100.00;95756.28;1022856;28;19942;-71
2022/06/21 01:45:07;;;;;;;;;;;;;;;12.45;100.00;95753.13;1027856;28;20465;-70
2022/06/21 01:45:41;;;;;;;;;;;;;;;12.47;100.00;95753.66;1027937;28;20000;-72
2022/06/21 01:46:14;;;;;;;;;;;;;;;12.47;100.00;95755.47;1027379;28;20295;-73
2022/06/21 01:46:44;;;;;;;;;;;;;;;12.46;100.00;95756.53;1027460;28;19920;-71
2022/06/21 01:47:15;;;;;;;;;;;;;;;12.46;100.00;95757.31;1028254;28;20323;-71
2022/06/21 01:47:48;;;;;;;;;;;;;;;12.45;100.00;95753.13;1027560;28;19910;-73
2022/06/21 01:48:22;;;;;;;;;;;;;;;12.45;100.00;95752.34;1027448;28;19913;-71
2022/06/21 01:48:53;;;;;;;;;;;;;;;12.45;100.00;95754.97;1024573;28;19918;-70
2022/06/21 01:49:25;;;;;;;;;;;;;;;12.45;100.00;95753.13;1024183;28;20381;-73
2022/06/21 01:49:56;;;;;;;;;;;;;;;12.44;100.00;95750.75;1024101;28;19917;-70
2022/06/21 01:50:26;;;;;;;;;;;;;;;12.42;100.00;95751.03;1027811;28;19970;-71
2022/06/21 01:50:59;;;;;;;;;;;;;;;12.42;100.00;95750.25;1027748;28;19970;-71
2022/06/21 01:51:42;;;;;;;;;;;;;;;12.41;100.00;95754.75;1027994;28;20359;-73
2022/06/21 01:52:14;;;;;;;;;;;;;;;12.41;100.00;95754.75;1030909;28;19996;-70
2022/06/21 01:52:45;;;;;;;;;;;;;;;12.42;100.00;95745.00;1031203;28;19918;-71
2022/06/21 01:53:16;;;;;;;;;;;;;;;12.41;100.00;95759.22;1033354;28;19997;-70
2022/06/21 01:53:47;;;;;;;;;;;;;;;12.41;100.00;95749.47;1035506;28;19921;-71
2022/06/21 01:54:17;;;;;;;;;;;;;;;12.42;100.00;95753.66;1035686;28;19918;-69
2022/06/21 01:54:56;;;;;;;;;;;;;;;12.43;100.00;95752.59;1035521;28;20224;-71
2022/06/21 01:55:26;;;;;;;;;;;;;;;12.45;100.00;95755.75;1032016;28;20012;-73
2022/06/21 01:56:04;;;;;;;;;;;;;;;12.43;100.00;95757.88;1030770;28;19918;-69
2022/06/21 01:56:36;;;;;;;;;;;;;;;12.41;100.00;95754.75;1033527;28;19914;-70
2022/06/21 01:57:07;;;;;;;;;;;;;;;12.39;100.00;95754.22;1035759;28;19914;-71
2022/06/21 01:57:37;;;;;;;;;;;;;;;12.41;100.00;95754.75;1035878;28;19918;-71
2022/06/21 01:58:09;;;;;;;;;;;;;;;12.41;100.00;95754.75;1035210;28;19948;-70
2022/06/21 01:58:41;;;;;;;;;;;;;;;12.39;100.00;95754.22;1031510;28;19918;-70
2022/06/21 01:59:13;;;;;;;;;;;;;;;12.37;100.00;95747.66;1031270;28;20372;-71
2022/06/21 01:59:46;;;;;;;;;;;;;;;12.38;100.00;95749.25;1025907;28;20000;-70
2022/06/21 02:00:17;;;;;;;;;;;;;;;12.35;100.00;95750.56;1027522;28;19918;-70
2022/06/21 02:00:49;;;;;;;;;;;;;;;12.35;100.00;95745.31;1027347;28;19949;-71
2022/06/21 02:01:23;;;;;;;;;;;;;;;12.35;100.00;95745.31;1027901;28;20021;-70
2022/06/21 02:02:06;;;;;;;;;;;;;;;12.33;100.00;95750.03;1027194;28;20414;-69
2022/06/21 02:02:38;;;;;;;;;;;;;;;12.33;100.00;95739.50;1021974;29;19918;-70
2022/06/21 02:03:11;;;;;;;;;;;;;;;12.31;100.00;95739.03;1027795;28;19959;-71
2022/06/21 02:03:41;;;;;;;;;;;;;;;12.29;100.00;95746.38;1030015;28;19993;-69
2022/06/21 02:04:12;;;;;;;;;;;;;;;12.28;100.00;95739.56;1024167;28;19946;-71
2022/06/21 02:04:44;;;;;;;;;;;;;;;12.29;100.00;95748.22;1024060;28;19949;-71
2022/06/21 02:05:18;;;;;;;;;;;;;;;12.31;100.00;95744.28;1023953;28;19965;-71
2022/06/21 02:05:53;;;;;;;;;;;;;;;12.30;100.00;95742.69;1021177;28;20381;-71
2022/06/21 02:06:24;;;;;;;;;;;;;;;12.29;100.00;95741.13;1027954;28;19918;-70
2022/06/21 02:06:54;;;;;;;;;;;;;;;12.29;100.00;95749.03;1028982;28;20435;-71
2022/06/21 02:07:26;;;;;;;;;;;;;;;12.28;100.00;95739.56;1032245;28;20012;-69
2022/06/21 02:07:58;;;;;;;;;;;;;;;12.30;100.00;95742.69;1031671;28;19914;-70
2022/06/21 02:08:33;;;;;;;;;;;;;;;12.27;100.00;95740.59;1031367;28;20016;-70
2022/06/21 02:09:04;;;;;;;;;;;;;;;12.28;100.00;95739.56;1027762;28;19921;-69
2022/06/21 02:09:35;;;;;;;;;;;;;;;12.26;100.00;95739.03;1028706;28;19964;-73
2022/06/21 02:10:12;;;;;;;;;;;;;;;12.28;100.00;95739.56;1028331;28;20017;-69
2022/06/21 02:10:50;;;;;;;;;;;;;;;12.28;100.00;95736.94;1032734;28;20361;-71
2022/06/21 02:11:22;;;;;;;;;;;;;;;12.29;100.00;95735.09;1031620;28;19913;-71
2022/06/21 02:12:02;;;;;;;;;;;;;;;12.29;100.00;95738.50;1033547;28;19929;-70
2022/06/21 02:12:32;;;;;;;;;;;;;;;12.27;100.00;95733.50;1035246;28;20405;-71
2022/06/21 02:13:13;;;;;;;;;;;;;;;12.26;100.00;95725.88;1035840;28;19962;-71
2022/06/21 02:13:48;;;;;;;;;;;;;;;12.25;100.00;95730.34;1031557;28;19918;-73
2022/06/21 02:14:28;;;;;;;;;;;;;;;12.23;100.00;95731.69;1027732;28;19914;-71
2022/06/21 02:14:58;;;;;;;;;;;;;;;12.24;100.00;95730.66;1025007;28;19918;-69
2022/06/21 02:15:36;;;;;;;;;;;;;;;12.23;100.00;95721.94;1025565;28;19914;-70
2022/06/21 02:16:13;;;;;;;;;;;;;;;12.25;100.00;95729.59;1029830;28;20025;-72
2022/06/21 02:16:45;;;;;;;;;;;;;;;12.25;100.00;95726.94;1024466;28;19980;-74
2022/06/21 02:17:26;;;;;;;;;;;;;;;12.25;100.00;95730.34;1025814;28;20518;-70
2022/06/21 02:17:59;;;;;;;;;;;;;;;12.23;100.00;95729.84;1026185;28;19973;-70
2022/06/21 02:18:30;;;;;;;;;;;;;;;12.20;100.00;95727.75;1027225;28;19918;-70
2022/06/21 02:19:00;;;;;;;;;;;;;;;12.18;100.00;95731.72;1031595;28;19909;-71
2022/06/21 02:19:41;;;;;;;;;;;;;;;12.19;100.00;95733.28;1027579;28;20438;-73
2022/06/21 02:20:13;;;;;;;;;;;;;;;12.18;100.00;95734.38;1029164;28;20396;-71
2022/06/21 02:20:45;;;;;;;;;;;;;;;12.15;100.00;95733.06;1029118;28;20009;-70
2022/06/21 02:21:29;;;;;;;;;;;;;;;12.16;100.00;95731.22;1027632;28;19918;-70
2022/06/21 02:21:59;;;;;;;;;;;;;;;12.13;100.00;95724.63;1029411;28;19914;-72
2022/06/21 02:22:29;;;;;;;;;;;;;;;12.12;100.00;95730.19;1034463;28;19918;-70
2022/06/21 02:22:59;;;;;;;;;;;;;;;12.10;100.00;95724.41;1033331;28;20418;-70
2022/06/21 02:23:30;;;;;;;;;;;;;;;12.10;100.00;95724.41;1031625;28;19928;-71
2022/06/21 02:24:00;;;;;;;;;;;;;;;12.08;100.00;95726.53;1027487;28;19925;-70
2022/06/21 02:24:30;;;;;;;;;;;;;;;12.06;100.00;95726.78;1023611;28;19918;-72
2022/06/21 02:25:01;;;;;;;;;;;;;;;12.06;100.00;95726.78;1027582;28;19918;-69
2022/06/21 02:25:31;;;;;;;;;;;;;;;12.04;100.00;95718.41;1031328;28;20020;-70
2022/06/21 02:26:02;;;;;;;;;;;;;;;12.03;100.00;95727.31;1035787;28;19957;-71
2022/06/21 02:26:32;;;;;;;;;;;;;;;12.03;100.00;95720.22;1035676;28;19937;-72
2022/06/21 02:27:04;;;;;;;;;;;;;;;12.03;100.00;95716.81;1031582;28;20359;-71
2022/06/21 02:27:34;;;;;;;;;;;;;;;12.01;100.00;95719.72;1031684;28;20444;-71
2022/06/21 02:28:05;;;;;;;;;;;;;;;12.00;100.00;95718.16;1031902;28;19918;-72
2022/06/21 02:28:35;;;;;;;;;;;;;;;11.98;100.00;95717.63;1031963;28;19910;-70
2022/06/21 02:29:06;;;;;;;;;;;;;;;11.98;100.00;95722.91;1027292;28;19930;-71
2022/06/21 02:29:36;;;;;;;;;;;;;;;11.99;100.00;95716.56;1027808;28;19929;-70
2022/06/21 02:30:07;;;;;;;;;;;;;;;11.98;100.00;95722.91;1027581;28;19926;-70
2022/06/21 02:30:37;;;;;;;;;;;;;;;11.97;100.00;95726.59;1027735;28;19919;-70
2022/06/21 02:31:08;;;;;;;;;;;;;;;11.96;100.00;95726.84;1035601;28;19917;-72
2022/06/21 02:31:38;;;;;;;;;;;;;;;11.93;100.00;95720.28;1031641;28;19917;-71
2022/06/21 02:32:35;;;;;;;;;;;;;;;11.93;100.00;95720.28;1031014;28;19921;-70
2022/06/21 02:33:06;;;;;;;;;;;;;;;11.94;100.00;95723.72;1032546;28;19920;-71
2022/06/21 02:33:36;;;;;;;;;;;;;;;11.96;100.00;95713.69;1035201;28;20489;-71
2022/06/21 02:34:07;;;;;;;;;;;;;;;11.95;100.00;95715.53;1030946;28;19924;-72
2022/06/21 02:34:38;;;;;;;;;;;;;;;11.96;100.00;95718.94;1031715;28;19952;-70
2022/06/21 02:35:19;;;;;;;;;;;;;;;11.97;100.00;95712.63;1031734;28;19913;-70
2022/06/21 02:35:56;;;;;;;;;;;;;;;11.97;100.00;95716.06;1032958;28;19918;-70
2022/06/21 02:36:28;;;;;;;;;;;;;;;11.95;100.00;95720.81;1031508;28;19914;-73
2022/06/21 02:36:59;;;;;;;;;;;;;;;11.95;100.00;95715.53;1030381;28;19968;-71
2022/06/21 02:37:30;;;;;;;;;;;;;;;11.95;100.00;95715.53;1032521;28;19921;-70
2022/06/21 02:38:00;;;;;;;;;;;;;;;11.95;100.00;95712.91;1035678;28;19917;-71
2022/06/21 02:38:34;;;;;;;;;;;;;;;11.95;100.00;95712.13;1027490;28;19918;-69
2022/06/21 02:39:05;;;;;;;;;;;;;;;11.95;100.00;95717.38;1023998;28;19938;-72
2022/06/21 02:39:36;;;;;;;;;;;;;;;11.93;100.00;95712.38;1024140;28;19946;-72
2022/06/21 02:40:07;;;;;;;;;;;;;;;11.94;100.00;95713.97;1024759;28;19918;-71
2022/06/21 02:40:38;;;;;;;;;;;;;;;11.94;100.00;95708.72;1019806;29;19918;-71
2022/06/21 02:41:12;;;;;;;;;;;;;;;11.91;100.00;95711.88;1019753;29;20361;-70
2022/06/21 02:41:42;;;;;;;;;;;;;;;11.89;100.00;95711.38;1024200;28;19922;-71
2022/06/21 02:42:15;;;;;;;;;;;;;;;11.86;100.00;95701.38;1024741;28;19910;-68
2022/06/21 02:42:46;;;;;;;;;;;;;;;11.87;100.00;95707.44;1036286;28;20174;-71
2022/06/21 02:43:20;;;;;;;;;;;;;;;11.85;100.00;95705.09;1035704;28;19917;-71
2022/06/21 02:43:52;;;;;;;;;;;;;;;11.86;100.00;95706.66;1032017;28;20432;-73
2022/06/21 02:44:27;;;;;;;;;;;;;;;11.86;100.00;95703.22;1031405;28;20004;-70
2022/06/21 02:44:59;;;;;;;;;;;;;;;11.84;100.00;95697.41;1028991;28;20379;-71
2022/06/21 02:45:33;;;;;;;;;;;;;;;11.85;100.00;95705.09;1031583;28;20411;-71
2022/06/21 02:46:08;;;;;;;;;;;;;;;11.82;100.00;95704.81;1029941;28;19918;-71
2022/06/21 02:46:40;;;;;;;;;;;;;;;11.80;100.00;95702.44;1024991;28;19918;-70
2022/06/21 02:47:12;;;;;;;;;;;;;;;11.79;100.00;95701.66;1027445;28;19918;-70
2022/06/21 02:47:42;;;;;;;;;;;;;;;11.81;100.00;95709.28;1027334;28;19910;-70
2022/06/21 02:48:14;;;;;;;;;;;;;;;11.79;100.00;95703.50;1028364;28;19992;-71
2022/06/21 02:48:48;;;;;;;;;;;;;;;11.78;100.00;95712.44;1027546;28;19914;-69